createdAt,value
2023-05-11T00:00:50.750Z,58.25
2023-05-11T00:03:17.551Z,58.70
2023-05-11T00:05:48.252Z,55.20
2023-05-11T00:08:17.116Z,53.28
2023-05-11T00:10:48.224Z,58.38
2023-05-11T00:13:15.144Z,53.05
2023-05-11T00:15:41.943Z,51.47
2023-05-11T00:18:08.607Z,48.17
2023-05-11T00:20:35.308Z,49.67
2023-05-11T00:23:02.459Z,50.90
2023-05-11T00:25:29.090Z,49.85
2023-05-11T00:27:55.739Z,49.58
2023-05-11T00:30:22.452Z,55.55
2023-05-11T00:32:52.332Z,58.35
2023-05-11T00:35:19.217Z,60.05
2023-05-11T00:37:45.843Z,65.00
2023-05-11T00:40:12.676Z,56.53
2023-05-11T00:42:39.316Z,59.83
2023-05-11T00:45:06.630Z,59.35
2023-05-11T00:47:33.416Z,66.47
2023-05-11T00:50:01.013Z,60.03
2023-05-11T00:52:27.878Z,66.93
2023-05-11T00:54:54.601Z,59.08
2023-05-11T00:57:21.491Z,56.72
2023-05-11T00:59:49.786Z,62.00
2023-05-11T01:02:17.366Z,58.83
2023-05-11T01:04:44.669Z,59.70
2023-05-11T01:07:11.220Z,74.28
2023-05-11T01:10:05.714Z,58.28
2023-05-11T01:12:46.400Z,59.35
2023-05-11T01:15:21.373Z,54.15
2023-05-11T01:20:27.658Z,53.15
2023-05-11T01:23:14.294Z,54.88
2023-05-11T01:26:21.619Z,51.33
2023-05-11T01:29:03.872Z,58.70
2023-05-11T01:31:32.245Z,53.92
2023-05-11T01:34:03.717Z,51.70
2023-05-11T01:36:38.967Z,50.20
2023-05-11T01:39:09.458Z,54.83
2023-05-11T01:41:38.509Z,50.70
2023-05-11T01:44:09.431Z,54.55
2023-05-11T01:46:39.828Z,55.20
2023-05-11T01:49:07.748Z,54.15
2023-05-11T01:51:37.805Z,56.38
2023-05-11T01:54:09.223Z,57.55
2023-05-11T01:56:38.082Z,53.75
2023-05-11T01:59:05.626Z,59.95
2023-05-11T02:01:35.640Z,53.97
2023-05-11T02:04:04.755Z,51.38
2023-05-11T02:06:34.138Z,56.05
2023-05-11T02:09:01.677Z,49.75
2023-05-11T02:11:30.253Z,52.05
2023-05-11T02:13:58.654Z,57.88
2023-05-11T02:16:29.804Z,45.55
2023-05-11T02:18:58.660Z,48.25
2023-05-11T02:21:27.609Z,51.17
2023-05-11T02:23:55.359Z,52.28
2023-05-11T02:26:22.329Z,50.88
2023-05-11T02:28:49.698Z,52.33
2023-05-11T02:31:24.380Z,58.72
2023-05-11T02:36:22.483Z,51.70
2023-05-11T02:38:54.869Z,53.45
2023-05-11T02:41:29.637Z,61.88
2023-05-11T02:44:03.610Z,63.35
2023-05-11T02:46:34.315Z,52.25
2023-05-11T02:49:05.615Z,57.45
2023-05-11T02:51:41.324Z,58.25
2023-05-11T02:54:10.724Z,60.95
2023-05-11T02:56:41.480Z,70.97
2023-05-11T02:59:08.655Z,66.85
2023-05-11T03:01:35.640Z,64.53
2023-05-11T03:04:05.768Z,65.70
2023-05-11T03:06:33.373Z,68.47
2023-05-11T03:09:01.680Z,76.13
2023-05-11T03:11:30.159Z,68.03
2023-05-11T03:13:57.318Z,75.20
2023-05-11T03:16:24.465Z,73.63
2023-05-11T03:18:51.794Z,75.97
2023-05-11T03:21:21.175Z,58.17
2023-05-11T03:23:49.235Z,76.15
2023-05-11T03:26:21.983Z,60.28
2023-05-11T03:28:51.317Z,60.97
2023-05-11T03:31:18.663Z,65.88
2023-05-11T03:33:45.552Z,66.60
2023-05-11T03:36:13.244Z,84.22
2023-05-11T03:38:40.773Z,79.85
2023-05-11T03:41:17.006Z,86.70
2023-05-11T03:43:51.631Z,90.55
2023-05-11T03:46:21.451Z,107.18
2023-05-11T03:48:48.954Z,102.95
2023-05-11T03:51:20.483Z,117.05
2023-05-11T03:53:47.519Z,109.45
2023-05-11T03:56:14.266Z,133.23
2023-05-11T03:58:41.343Z,122.68
2023-05-11T04:01:09.531Z,128.07
2023-05-11T04:03:47.708Z,135.25
2023-05-11T04:06:15.213Z,126.90
2023-05-11T04:08:42.333Z,152.73
2023-05-11T04:11:08.959Z,164.80
2023-05-11T04:13:35.751Z,199.57
2023-05-11T04:16:02.574Z,203.07
2023-05-11T04:18:30.178Z,188.60
2023-05-11T04:20:57.248Z,182.73
2023-05-11T04:23:23.972Z,195.07
2023-05-11T04:25:55.726Z,220.52
2023-05-11T04:28:23.886Z,234.82
2023-05-11T04:30:56.294Z,209.68
2023-05-11T04:33:23.682Z,214.27
2023-05-11T04:35:52.321Z,207.05
2023-05-11T04:38:20.574Z,219.82
2023-05-11T04:40:47.982Z,258.92
2023-05-11T04:43:15.558Z,203.05
2023-05-11T04:45:46.875Z,186.55
2023-05-11T04:48:13.794Z,183.23
2023-05-11T04:50:40.613Z,198.18
2023-05-11T04:53:08.160Z,212.00
2023-05-11T04:55:34.773Z,187.85
2023-05-11T04:58:01.510Z,193.60
2023-05-11T05:00:28.159Z,211.55
2023-05-11T05:02:54.800Z,178.93
2023-05-11T05:05:21.952Z,177.27
2023-05-11T05:07:48.569Z,188.00
2023-05-11T05:10:15.245Z,179.13
2023-05-11T05:12:41.919Z,197.90
2023-05-11T05:15:09.427Z,187.85
2023-05-11T05:17:36.249Z,157.00
2023-05-11T05:20:04.392Z,164.32
2023-05-11T05:22:31.786Z,176.70
2023-05-11T05:24:58.536Z,182.27
2023-05-11T05:27:25.738Z,173.77
2023-05-11T05:29:53.179Z,195.95
2023-05-11T05:32:20.317Z,169.43
2023-05-11T05:34:47.588Z,160.77
2023-05-11T05:37:14.935Z,188.23
2023-05-11T05:39:41.601Z,175.63
2023-05-11T05:42:09.148Z,160.07
2023-05-11T05:44:35.866Z,171.63
2023-05-11T05:47:02.777Z,182.18
2023-05-11T05:49:32.607Z,164.88
2023-05-11T05:51:59.587Z,129.13
2023-05-11T05:54:27.245Z,169.00
2023-05-11T05:56:56.147Z,143.90
2023-05-11T05:59:24.197Z,139.02
2023-05-11T06:01:55.077Z,129.52
2023-05-11T06:04:23.481Z,124.20
2023-05-11T06:06:50.342Z,121.85
2023-05-11T06:09:18.060Z,113.18
2023-05-11T06:11:44.674Z,108.03
2023-05-11T06:14:11.349Z,115.07
2023-05-11T06:16:38.356Z,108.65
2023-05-11T06:19:05.215Z,118.20
2023-05-11T06:21:31.998Z,116.93
2023-05-11T06:23:58.729Z,89.55
2023-05-11T06:26:28.508Z,91.97
2023-05-11T06:28:55.453Z,92.55
2023-05-11T06:31:24.147Z,101.75
2023-05-11T06:33:51.301Z,86.72
2023-05-11T06:36:25.232Z,96.57
2023-05-11T06:38:53.168Z,79.65
2023-05-11T06:41:21.166Z,68.75
2023-05-11T06:43:47.852Z,80.05
2023-05-11T06:46:21.993Z,86.57
2023-05-11T06:48:50.151Z,74.15
2023-05-11T06:51:16.963Z,68.03
2023-05-11T06:53:44.262Z,65.72
2023-05-11T06:56:10.874Z,80.57
2023-05-11T06:58:37.507Z,70.35
2023-05-11T07:01:07.549Z,68.95
2023-05-11T07:03:37.309Z,73.72
2023-05-11T07:06:04.183Z,79.63
2023-05-11T07:08:30.792Z,74.03
2023-05-11T07:10:57.443Z,76.60
2023-05-11T07:13:24.089Z,77.25
2023-05-11T07:15:50.816Z,77.38
2023-05-11T07:18:17.555Z,79.38
2023-05-11T07:20:46.801Z,75.88
2023-05-11T07:23:13.421Z,82.60
2023-05-11T07:25:40.335Z,80.50
2023-05-11T07:28:07.291Z,86.13
2023-05-11T07:30:34.005Z,77.95
2023-05-11T07:33:00.778Z,93.72
2023-05-11T07:35:27.493Z,94.43
2023-05-11T07:37:54.395Z,103.10
2023-05-11T07:40:21.831Z,96.28
2023-05-11T07:42:48.599Z,80.82
2023-05-11T07:45:15.404Z,86.95
2023-05-11T07:47:42.014Z,95.35
2023-05-11T07:50:09.088Z,108.47
2023-05-11T07:52:35.731Z,89.30
2023-05-11T07:55:02.435Z,91.40
2023-05-11T07:57:29.070Z,99.38
2023-05-11T07:59:55.958Z,105.22
2023-05-11T08:02:22.700Z,93.68
2023-05-11T08:04:49.613Z,92.88
2023-05-11T08:07:16.302Z,88.43
2023-05-11T08:09:43.054Z,89.40
2023-05-11T08:12:09.868Z,93.60
2023-05-11T08:14:37.522Z,87.80
2023-05-11T08:17:04.286Z,83.40
2023-05-11T08:19:31.052Z,81.18
2023-05-11T08:21:57.824Z,82.00
2023-05-11T08:24:24.465Z,74.50
2023-05-11T08:26:51.135Z,80.60
2023-05-11T08:29:17.764Z,91.32
2023-05-11T08:31:44.485Z,90.20
2023-05-11T08:36:40.847Z,88.55
2023-05-11T08:39:07.440Z,72.35
2023-05-11T08:41:34.951Z,93.15
2023-05-11T08:44:01.997Z,97.70
2023-05-11T08:46:30.249Z,88.85
2023-05-11T08:48:58.709Z,69.95
2023-05-11T08:51:26.666Z,71.07
2023-05-11T08:53:53.376Z,77.85
2023-05-11T08:56:22.296Z,110.55
2023-05-11T08:58:50.455Z,114.85
2023-05-11T09:01:19.094Z,133.15
2023-05-11T09:03:47.638Z,121.40
2023-05-11T09:06:15.989Z,119.28
2023-05-11T09:08:43.964Z,133.50
2023-05-11T09:11:11.144Z,134.70
2023-05-11T09:13:38.157Z,142.52
2023-05-11T09:16:07.320Z,130.27
2023-05-11T09:18:47.600Z,122.80
2023-05-11T09:21:14.505Z,149.45
2023-05-11T09:23:41.252Z,125.88
2023-05-11T09:26:20.720Z,130.40
2023-05-11T09:29:02.409Z,128.43
2023-05-11T09:31:36.449Z,129.15
2023-05-11T09:34:14.030Z,123.05
2023-05-11T09:36:46.360Z,150.90
2023-05-11T09:39:16.599Z,160.43
2023-05-11T09:41:43.669Z,131.20
2023-05-11T09:44:15.832Z,142.15
2023-05-11T09:46:44.490Z,156.38
2023-05-11T09:49:11.981Z,139.73
2023-05-11T09:51:42.828Z,170.57
2023-05-11T09:54:20.943Z,163.02
2023-05-11T09:56:54.264Z,193.45
2023-05-11T09:59:38.777Z,165.40
2023-05-11T10:02:27.624Z,164.03
2023-05-11T10:04:59.424Z,146.05
2023-05-11T10:07:35.997Z,148.30
2023-05-11T10:10:07.792Z,158.02
2023-05-11T10:12:38.284Z,142.07
2023-05-11T10:15:07.656Z,141.65
2023-05-11T10:17:35.153Z,136.32
2023-05-11T10:20:04.274Z,138.38
2023-05-11T10:22:31.264Z,134.18
2023-05-11T10:24:58.970Z,133.52
2023-05-11T10:27:27.065Z,131.13
2023-05-11T10:29:53.745Z,108.72
2023-05-11T10:32:21.284Z,107.68
2023-05-11T10:34:50.072Z,109.22
2023-05-11T10:37:17.524Z,120.80
2023-05-11T10:39:47.847Z,123.95
2023-05-11T10:42:53.740Z,96.22
2023-05-11T10:45:29.856Z,97.40
2023-05-11T10:48:21.045Z,100.00
2023-05-11T10:51:18.652Z,97.95
2023-05-11T10:54:27.482Z,80.28
2023-05-11T10:57:11.582Z,58.92
2023-05-11T10:59:51.610Z,66.22
2023-05-11T11:02:18.850Z,60.22
2023-05-11T11:04:47.512Z,53.92
2023-05-11T11:07:18.483Z,55.20
2023-05-11T11:10:00.161Z,58.92
2023-05-11T11:12:29.553Z,57.58
2023-05-11T11:15:01.969Z,62.50
2023-05-11T11:17:32.136Z,67.20
2023-05-11T11:20:04.510Z,53.10
2023-05-11T11:22:41.430Z,50.10
2023-05-11T11:25:12.388Z,51.20
2023-05-11T11:27:45.227Z,61.45
2023-05-11T11:30:20.897Z,69.55
2023-05-11T11:32:52.290Z,63.70
2023-05-11T11:35:41.180Z,62.08
2023-05-11T11:38:10.442Z,69.25
2023-05-11T11:40:49.484Z,70.75
2023-05-11T11:43:26.046Z,63.05
2023-05-11T11:45:55.842Z,60.10
2023-05-11T11:48:29.613Z,69.13
2023-05-11T11:51:04.365Z,62.05
2023-05-11T11:53:37.306Z,66.35
2023-05-11T11:56:04.920Z,66.60
2023-05-11T11:58:46.623Z,69.28
2023-05-11T12:01:21.983Z,59.47
2023-05-11T12:04:20.133Z,61.03
2023-05-11T12:06:57.656Z,55.78
2023-05-11T12:09:25.269Z,51.95
2023-05-11T12:11:53.033Z,43.40
2023-05-11T12:14:21.428Z,42.42
2023-05-11T12:17:03.057Z,52.10
2023-05-11T12:19:30.744Z,45.10
2023-05-11T12:21:57.798Z,39.88
2023-05-11T12:24:24.521Z,59.25
2023-05-11T12:26:56.575Z,60.55
2023-05-11T12:29:23.534Z,78.63
2023-05-11T12:31:50.274Z,82.88
2023-05-11T12:34:19.063Z,84.32
2023-05-11T12:36:46.821Z,80.35
2023-05-11T12:39:31.875Z,79.93
2023-05-11T12:41:58.664Z,85.20
2023-05-11T12:44:26.499Z,78.97
2023-05-11T12:46:53.605Z,69.85
2023-05-11T12:52:13.168Z,59.97
2023-05-11T12:54:43.250Z,63.97
2023-05-11T12:57:23.823Z,68.32
2023-05-11T13:00:12.057Z,67.63
2023-05-11T13:02:53.616Z,53.38
2023-05-11T13:05:25.575Z,52.10
2023-05-11T13:08:05.725Z,40.67
2023-05-11T13:10:32.517Z,43.03
2023-05-11T13:12:59.261Z,51.90
2023-05-11T13:15:28.359Z,40.30
2023-05-11T13:18:01.143Z,34.90
2023-05-11T13:20:30.091Z,44.70
2023-05-11T13:23:08.592Z,37.03
2023-05-11T13:25:55.508Z,34.67
2023-05-11T13:28:24.210Z,33.30
2023-05-11T13:30:58.071Z,27.20
2023-05-11T13:33:24.796Z,29.45
2023-05-11T13:35:51.395Z,24.08
2023-05-11T13:38:18.021Z,20.45
2023-05-11T13:40:44.640Z,20.83
2023-05-11T13:43:11.283Z,21.15
2023-05-11T13:45:40.028Z,16.48
2023-05-11T13:48:07.120Z,16.40
2023-05-11T13:50:34.491Z,19.92
2023-05-11T13:53:01.454Z,19.02
2023-05-11T13:55:29.177Z,19.95
2023-05-11T13:57:56.743Z,18.25
2023-05-11T14:00:23.788Z,17.88
2023-05-11T14:02:51.577Z,14.45
2023-05-11T14:05:19.042Z,15.50
2023-05-11T14:07:47.707Z,16.73
2023-05-11T14:10:16.064Z,14.60
2023-05-11T14:12:43.189Z,17.00
2023-05-11T14:15:10.335Z,15.05
2023-05-11T14:17:37.784Z,16.48
2023-05-11T14:20:05.901Z,15.88
2023-05-11T14:22:32.627Z,12.68
2023-05-11T14:24:59.886Z,11.55
2023-05-11T14:27:26.735Z,9.68
2023-05-11T14:29:53.930Z,11.23
2023-05-11T14:32:21.007Z,10.13
2023-05-11T14:34:48.543Z,8.23
2023-05-11T14:37:15.227Z,9.35
2023-05-11T14:39:41.925Z,8.13
2023-05-11T14:42:09.361Z,7.80
2023-05-11T14:44:36.004Z,7.90
2023-05-11T14:47:02.689Z,9.00
2023-05-11T14:49:29.424Z,9.02
2023-05-11T14:51:57.499Z,7.60
2023-05-11T14:54:24.099Z,10.13
2023-05-11T14:56:55.069Z,10.35
2023-05-11T14:59:24.250Z,9.90
2023-05-11T15:01:51.500Z,10.30
2023-05-11T15:04:19.492Z,10.35
2023-05-11T15:06:46.465Z,11.82
2023-05-11T15:09:13.527Z,8.90
2023-05-11T15:11:40.388Z,8.77
2023-05-11T15:14:07.033Z,8.30
2023-05-11T15:16:33.840Z,10.07
2023-05-11T15:19:00.648Z,9.43
2023-05-11T15:21:27.758Z,9.77
2023-05-11T15:23:54.474Z,11.82
2023-05-11T15:26:22.174Z,10.70
2023-05-11T15:28:49.114Z,11.80
2023-05-11T15:31:15.934Z,13.55
2023-05-11T15:33:43.184Z,10.23
2023-05-11T15:36:14.378Z,9.55
2023-05-11T15:38:42.320Z,8.85
2023-05-11T15:41:09.248Z,9.05
2023-05-11T15:43:35.931Z,10.48
2023-05-11T15:46:04.661Z,10.15
2023-05-11T15:48:31.829Z,12.15
2023-05-11T15:51:01.926Z,11.73
2023-05-11T15:53:28.739Z,12.02
2023-05-11T15:55:56.467Z,13.93
2023-05-11T15:58:23.197Z,12.52
2023-05-11T16:00:50.085Z,15.18
2023-05-11T16:03:17.232Z,15.25
2023-05-11T16:05:44.731Z,16.58
2023-05-11T16:08:11.921Z,18.20
2023-05-11T16:10:39.017Z,16.95
2023-05-11T16:13:05.798Z,16.17
2023-05-11T16:15:32.929Z,17.38
2023-05-11T16:18:00.988Z,18.00
2023-05-11T16:20:30.055Z,16.27
2023-05-11T16:22:56.684Z,16.98
2023-05-11T16:25:23.958Z,17.05
2023-05-11T16:27:50.592Z,16.83
2023-05-11T16:30:24.387Z,12.77
2023-05-11T16:35:19.485Z,6.22
2023-05-11T16:37:47.701Z,7.25
2023-05-11T16:40:14.780Z,8.57
2023-05-11T16:42:41.468Z,8.75
2023-05-11T16:45:08.570Z,9.05
2023-05-11T16:47:35.653Z,9.38
2023-05-11T16:50:02.434Z,7.43
2023-05-11T16:52:29.060Z,6.45
2023-05-11T16:54:58.811Z,7.07
2023-05-11T16:57:26.621Z,5.88
2023-05-11T16:59:53.270Z,6.18
2023-05-11T17:02:20.776Z,6.78
2023-05-11T17:04:47.870Z,5.80
2023-05-11T17:07:15.600Z,6.00
2023-05-11T17:09:42.946Z,7.07
2023-05-11T17:12:12.841Z,7.80
2023-05-11T17:14:39.829Z,10.57
2023-05-11T17:17:07.947Z,11.82
2023-05-11T17:19:34.633Z,16.10
2023-05-11T17:22:01.395Z,15.77
2023-05-11T17:24:28.418Z,15.25
2023-05-11T17:26:55.194Z,18.58
2023-05-11T17:29:22.231Z,18.83
2023-05-11T17:31:51.196Z,20.35
2023-05-11T17:34:19.409Z,22.83
2023-05-11T17:36:46.592Z,22.73
2023-05-11T17:39:13.622Z,23.48
2023-05-11T17:41:40.249Z,25.00
2023-05-11T17:44:07.184Z,25.17
2023-05-11T17:46:34.462Z,26.20
2023-05-11T17:49:01.464Z,31.02
2023-05-11T17:51:28.352Z,28.40
2023-05-11T17:53:55.972Z,33.97
2023-05-11T17:56:22.635Z,32.30
2023-05-11T17:58:51.275Z,32.28
2023-05-11T18:01:18.792Z,35.28
2023-05-11T18:03:46.771Z,49.28
2023-05-11T18:06:13.720Z,40.65
2023-05-11T18:08:40.528Z,35.47
2023-05-11T18:11:09.932Z,36.30
2023-05-11T18:13:36.649Z,34.13
2023-05-11T18:16:03.584Z,36.72
2023-05-11T18:18:30.274Z,40.40
2023-05-11T18:20:57.408Z,39.35
2023-05-11T18:23:24.121Z,35.58
2023-05-11T18:25:50.761Z,38.55
2023-05-11T18:28:17.477Z,34.63
2023-05-11T18:30:44.537Z,30.25
2023-05-11T18:33:11.728Z,28.80
2023-05-11T18:35:40.406Z,41.80
2023-05-11T18:38:07.628Z,24.52
2023-05-11T18:40:34.926Z,32.70
2023-05-11T18:43:01.747Z,29.33
2023-05-11T18:45:30.351Z,36.22
2023-05-11T18:47:57.400Z,33.53
2023-05-11T18:50:24.179Z,37.13
2023-05-11T18:52:50.845Z,37.78
2023-05-11T18:55:17.944Z,41.45
2023-05-11T18:57:45.811Z,39.10
2023-05-11T19:00:13.426Z,50.92
2023-05-11T19:02:40.224Z,44.50
2023-05-11T19:05:07.626Z,40.65
2023-05-11T19:07:34.412Z,39.92
2023-05-11T19:10:01.110Z,45.75
2023-05-11T19:12:27.789Z,42.80
2023-05-11T19:14:57.161Z,39.38
2023-05-11T19:17:23.999Z,43.08
2023-05-11T19:19:51.941Z,42.35
2023-05-11T19:22:20.428Z,34.15
2023-05-11T19:24:47.344Z,39.83
2023-05-11T19:27:15.312Z,39.85
2023-05-11T19:29:42.652Z,38.03
2023-05-11T19:32:09.352Z,42.90
2023-05-11T19:34:36.443Z,90.50
2023-05-11T19:37:03.129Z,63.83
2023-05-11T19:39:29.781Z,71.22
2023-05-11T19:41:56.474Z,50.13
2023-05-11T19:44:23.133Z,58.25
2023-05-11T19:46:49.761Z,57.08
2023-05-11T19:49:17.311Z,42.50
2023-05-11T19:51:43.988Z,36.38
2023-05-11T19:54:11.275Z,35.00
2023-05-11T19:56:38.299Z,39.88
2023-05-11T19:59:05.000Z,35.22
2023-05-11T20:01:31.900Z,38.00
2023-05-11T20:03:59.799Z,36.20
2023-05-11T20:06:26.693Z,35.58
2023-05-11T20:08:54.033Z,38.72
2023-05-11T20:11:21.910Z,40.22
2023-05-11T20:13:48.992Z,45.05
2023-05-11T20:16:15.834Z,47.65
2023-05-11T20:18:42.571Z,46.95
2023-05-11T20:21:09.300Z,44.47
2023-05-11T20:23:37.570Z,44.72
2023-05-11T20:26:04.715Z,52.58
2023-05-11T20:28:31.819Z,48.15
2023-05-11T20:30:58.902Z,47.33
2023-05-11T20:35:55.374Z,47.75
2023-05-11T20:38:22.178Z,53.38
2023-05-11T20:40:48.837Z,52.40
2023-05-11T20:43:16.295Z,52.35
2023-05-11T20:45:43.880Z,57.03
2023-05-11T20:48:10.719Z,50.42
2023-05-11T20:50:39.189Z,55.45
2023-05-11T20:53:05.955Z,55.25
2023-05-11T20:55:32.699Z,51.40
2023-05-11T20:57:59.439Z,44.45
2023-05-11T21:00:26.059Z,51.00
2023-05-11T21:02:53.134Z,51.33
2023-05-11T21:05:19.986Z,47.13
2023-05-11T21:07:47.105Z,50.50
2023-05-11T21:10:14.168Z,50.10
2023-05-11T21:12:41.223Z,43.78
2023-05-11T21:15:08.389Z,51.40
2023-05-11T21:17:35.779Z,46.20
2023-05-11T21:20:06.192Z,51.15
2023-05-11T21:22:34.140Z,54.17
2023-05-11T21:25:02.294Z,48.58
2023-05-11T21:27:29.192Z,54.20
2023-05-11T21:29:56.282Z,52.80
2023-05-11T21:32:23.470Z,48.33
2023-05-11T21:34:50.172Z,47.05
2023-05-11T21:37:20.090Z,49.30
2023-05-11T21:39:50.364Z,50.58
2023-05-11T21:42:17.134Z,48.58
2023-05-11T21:44:43.776Z,48.15
2023-05-11T21:47:10.515Z,44.70
2023-05-11T21:49:37.271Z,50.85
2023-05-11T21:52:04.171Z,44.28
2023-05-11T21:54:31.335Z,46.55
2023-05-11T21:56:58.003Z,48.00
2023-05-11T21:59:27.426Z,50.83
2023-05-11T22:01:56.521Z,48.90
2023-05-11T22:04:23.560Z,51.30
2023-05-11T22:06:50.425Z,48.75
2023-05-11T22:09:17.057Z,49.42
2023-05-11T22:11:44.991Z,48.28
2023-05-11T22:14:11.598Z,47.38
2023-05-11T22:16:38.239Z,48.97
2023-05-11T22:19:04.985Z,45.53
2023-05-11T22:21:31.797Z,46.20
2023-05-11T22:23:59.033Z,45.80
2023-05-11T22:26:26.363Z,46.08
2023-05-11T22:28:53.044Z,47.33
2023-05-11T22:31:19.737Z,51.20
2023-05-11T22:33:46.356Z,43.38
2023-05-11T22:36:13.070Z,44.13
2023-05-11T22:38:39.753Z,48.90
2023-05-11T22:41:06.500Z,44.55
2023-05-11T22:43:33.715Z,46.65
2023-05-11T22:46:00.510Z,46.72
2023-05-11T22:48:27.197Z,46.78
2023-05-11T22:50:53.871Z,53.88
2023-05-11T22:53:20.878Z,49.35
2023-05-11T22:55:47.630Z,53.38
2023-05-11T22:58:14.592Z,47.88
2023-05-11T23:00:41.197Z,52.90
2023-05-11T23:03:08.200Z,49.00
2023-05-11T23:05:34.909Z,47.95
2023-05-11T23:08:01.529Z,53.22
2023-05-11T23:10:28.642Z,50.40
2023-05-11T23:12:55.954Z,48.25
2023-05-11T23:15:22.600Z,52.28
2023-05-11T23:17:49.337Z,43.47
2023-05-11T23:20:16.633Z,45.55
2023-05-11T23:22:43.502Z,53.70
2023-05-11T23:25:10.986Z,48.13
2023-05-11T23:27:37.639Z,56.08
2023-05-11T23:30:04.901Z,54.05
2023-05-11T23:32:31.728Z,59.78
2023-05-11T23:34:58.640Z,56.97
2023-05-11T23:37:25.481Z,58.70
2023-05-11T23:39:52.557Z,55.08
2023-05-11T23:42:19.430Z,59.95
2023-05-11T23:44:46.712Z,51.17
2023-05-11T23:47:13.387Z,45.08
2023-05-11T23:49:40.076Z,39.88
2023-05-11T23:52:07.096Z,48.08
2023-05-11T23:54:33.897Z,42.83
2023-05-11T23:57:01.921Z,40.72
2023-05-11T23:59:28.547Z,38.92
